sensor_id;sensor_type;location;lat;lon;timestamp;temperature;humidity
5786;DHT22;2919;48.630;9.000;2022-08-14T00:00:38;15.60;90.60
5786;DHT22;2919;48.630;9.000;2022-08-14T00:03:04;15.50;90.70
5786;DHT22;2919;48.630;9.000;2022-08-14T00:05:29;15.50;90.60
5786;DHT22;2919;48.630;9.000;2022-08-14T00:07:55;15.50;90.80
5786;DHT22;2919;48.630;9.000;2022-08-14T00:10:21;15.50;90.90
5786;DHT22;2919;48.630;9.000;2022-08-14T00:12:52;15.50;90.80
5786;DHT22;2919;48.630;9.000;2022-08-14T00:17:51;15.50;91.00
5786;DHT22;2919;48.630;9.000;2022-08-14T00:20:23;15.40;91.30
5786;DHT22;2919;48.630;9.000;2022-08-14T00:22:49;15.40;91.40
5786;DHT22;2919;48.630;9.000;2022-08-14T00:25:15;15.40;91.60
5786;DHT22;2919;48.630;9.000;2022-08-14T00:27:40;15.40;91.50
5786;DHT22;2919;48.630;9.000;2022-08-14T00:30:08;15.30;91.50
5786;DHT22;2919;48.630;9.000;2022-08-14T00:32:35;15.20;92.00
5786;DHT22;2919;48.630;9.000;2022-08-14T00:35:02;15.30;92.10
5786;DHT22;2919;48.630;9.000;2022-08-14T00:37:28;15.20;92.30
5786;DHT22;2919;48.630;9.000;2022-08-14T00:39:54;15.20;92.20
5786;DHT22;2919;48.630;9.000;2022-08-14T00:42:21;15.00;92.20
5786;DHT22;2919;48.630;9.000;2022-08-14T00:44:48;14.90;92.70
5786;DHT22;2919;48.630;9.000;2022-08-14T00:47:15;14.90;92.90
5786;DHT22;2919;48.630;9.000;2022-08-14T00:49:41;14.80;93.20
5786;DHT22;2919;48.630;9.000;2022-08-14T00:52:07;14.80;93.70
5786;DHT22;2919;48.630;9.000;2022-08-14T00:54:34;14.80;93.10
5786;DHT22;2919;48.630;9.000;2022-08-14T00:57:03;14.80;93.20
5786;DHT22;2919;48.630;9.000;2022-08-14T00:59:28;14.70;93.10
5786;DHT22;2919;48.630;9.000;2022-08-14T01:01:58;14.70;93.10
5786;DHT22;2919;48.630;9.000;2022-08-14T01:04:25;14.70;93.40
5786;DHT22;2919;48.630;9.000;2022-08-14T01:06:51;14.70;93.60
5786;DHT22;2919;48.630;9.000;2022-08-14T01:09:19;14.60;93.80
5786;DHT22;2919;48.630;9.000;2022-08-14T01:11:51;14.60;93.90
5786;DHT22;2919;48.630;9.000;2022-08-14T01:14:18;14.60;94.00
5786;DHT22;2919;48.630;9.000;2022-08-14T01:16:45;14.70;94.10
5786;DHT22;2919;48.630;9.000;2022-08-14T01:19:11;14.70;93.80
5786;DHT22;2919;48.630;9.000;2022-08-14T01:21:55;14.70;93.80
5786;DHT22;2919;48.630;9.000;2022-08-14T01:24:22;14.70;94.00
5786;DHT22;2919;48.630;9.000;2022-08-14T01:26:48;14.50;94.40
5786;DHT22;2919;48.630;9.000;2022-08-14T01:29:14;14.40;94.30
5786;DHT22;2919;48.630;9.000;2022-08-14T01:31:40;14.50;94.50
5786;DHT22;2919;48.630;9.000;2022-08-14T01:34:26;14.40;94.30
5786;DHT22;2919;48.630;9.000;2022-08-14T01:36:51;14.40;94.60
5786;DHT22;2919;48.630;9.000;2022-08-14T01:39:18;14.40;94.70
5786;DHT22;2919;48.630;9.000;2022-08-14T01:41:47;14.50;94.40
5786;DHT22;2919;48.630;9.000;2022-08-14T01:44:17;14.50;94.60
5786;DHT22;2919;48.630;9.000;2022-08-14T01:46:43;14.50;94.70
5786;DHT22;2919;48.630;9.000;2022-08-14T01:49:13;14.40;94.90
5786;DHT22;2919;48.630;9.000;2022-08-14T01:51:42;14.30;95.00
5786;DHT22;2919;48.630;9.000;2022-08-14T01:54:14;14.30;95.10
5786;DHT22;2919;48.630;9.000;2022-08-14T01:56:40;14.20;95.00
5786;DHT22;2919;48.630;9.000;2022-08-14T01:59:29;14.20;95.30
5786;DHT22;2919;48.630;9.000;2022-08-14T02:02:01;14.20;95.40
5786;DHT22;2919;48.630;9.000;2022-08-14T02:04:34;14.20;95.70
5786;DHT22;2919;48.630;9.000;2022-08-14T02:07:00;14.10;95.60
5786;DHT22;2919;48.630;9.000;2022-08-14T02:09:28;14.10;95.70
5786;DHT22;2919;48.630;9.000;2022-08-14T02:11:57;14.10;95.70
5786;DHT22;2919;48.630;9.000;2022-08-14T02:14:23;14.10;96.10
5786;DHT22;2919;48.630;9.000;2022-08-14T02:16:49;14.10;96.20
5786;DHT22;2919;48.630;9.000;2022-08-14T02:19:26;14.10;96.00
5786;DHT22;2919;48.630;9.000;2022-08-14T02:21:54;14.10;95.90
5786;DHT22;2919;48.630;9.000;2022-08-14T02:24:23;14.10;96.00
5786;DHT22;2919;48.630;9.000;2022-08-14T02:26:51;14.00;96.00
5786;DHT22;2919;48.630;9.000;2022-08-14T02:29:20;14.00;96.20
5786;DHT22;2919;48.630;9.000;2022-08-14T02:31:48;13.90;96.10
5786;DHT22;2919;48.630;9.000;2022-08-14T02:36:46;13.80;96.80
5786;DHT22;2919;48.630;9.000;2022-08-14T02:39:13;13.80;96.80
5786;DHT22;2919;48.630;9.000;2022-08-14T02:41:39;13.70;96.80
5786;DHT22;2919;48.630;9.000;2022-08-14T02:44:06;13.70;97.50
5786;DHT22;2919;48.630;9.000;2022-08-14T02:46:34;13.60;97.30
5786;DHT22;2919;48.630;9.000;2022-08-14T02:49:00;13.60;97.40
5786;DHT22;2919;48.630;9.000;2022-08-14T02:51:27;13.60;97.20
5786;DHT22;2919;48.630;9.000;2022-08-14T02:53:55;13.60;97.70
5786;DHT22;2919;48.630;9.000;2022-08-14T02:56:21;13.60;97.10
5786;DHT22;2919;48.630;9.000;2022-08-14T02:58:49;13.70;97.10
5786;DHT22;2919;48.630;9.000;2022-08-14T03:01:19;13.70;96.90
5786;DHT22;2919;48.630;9.000;2022-08-14T03:03:46;13.70;96.90
5786;DHT22;2919;48.630;9.000;2022-08-14T03:06:17;13.60;97.20
5786;DHT22;2919;48.630;9.000;2022-08-14T03:08:45;13.60;97.00
5786;DHT22;2919;48.630;9.000;2022-08-14T03:11:12;13.60;96.80
5786;DHT22;2919;48.630;9.000;2022-08-14T03:13:43;13.60;97.00
5786;DHT22;2919;48.630;9.000;2022-08-14T03:16:11;13.50;97.20
5786;DHT22;2919;48.630;9.000;2022-08-14T03:18:44;13.50;97.30
5786;DHT22;2919;48.630;9.000;2022-08-14T03:21:13;13.40;97.80
5786;DHT22;2919;48.630;9.000;2022-08-14T03:23:40;13.30;97.90
5786;DHT22;2919;48.630;9.000;2022-08-14T03:26:08;13.30;98.00
5786;DHT22;2919;48.630;9.000;2022-08-14T03:28:35;13.30;98.00
5786;DHT22;2919;48.630;9.000;2022-08-14T03:31:03;13.30;97.80
5786;DHT22;2919;48.630;9.000;2022-08-14T03:33:29;13.30;98.00
5786;DHT22;2919;48.630;9.000;2022-08-14T03:35:55;13.20;98.20
5786;DHT22;2919;48.630;9.000;2022-08-14T03:38:21;13.20;98.20
5786;DHT22;2919;48.630;9.000;2022-08-14T03:40:47;13.20;98.20
5786;DHT22;2919;48.630;9.000;2022-08-14T03:43:15;13.10;98.60
5786;DHT22;2919;48.630;9.000;2022-08-14T03:45:40;13.00;98.50
5786;DHT22;2919;48.630;9.000;2022-08-14T03:48:15;13.10;98.60
5786;DHT22;2919;48.630;9.000;2022-08-14T03:50:48;13.10;98.40
5786;DHT22;2919;48.630;9.000;2022-08-14T03:53:17;13.10;98.70
5786;DHT22;2919;48.630;9.000;2022-08-14T03:55:43;13.00;98.70
5786;DHT22;2919;48.630;9.000;2022-08-14T03:58:09;13.10;98.80
5786;DHT22;2919;48.630;9.000;2022-08-14T04:00:36;13.00;98.80
5786;DHT22;2919;48.630;9.000;2022-08-14T04:03:04;13.00;98.70
5786;DHT22;2919;48.630;9.000;2022-08-14T04:05:31;13.00;98.70
5786;DHT22;2919;48.630;9.000;2022-08-14T04:07:56;12.90;98.90
5786;DHT22;2919;48.630;9.000;2022-08-14T04:10:23;12.80;99.20
5786;DHT22;2919;48.630;9.000;2022-08-14T04:12:49;12.80;99.30
5786;DHT22;2919;48.630;9.000;2022-08-14T04:15:15;12.80;98.90
5786;DHT22;2919;48.630;9.000;2022-08-14T04:17:45;12.90;98.90
5786;DHT22;2919;48.630;9.000;2022-08-14T04:20:11;12.90;98.80
5786;DHT22;2919;48.630;9.000;2022-08-14T04:22:37;12.80;98.90
5786;DHT22;2919;48.630;9.000;2022-08-14T04:25:07;12.80;99.30
5786;DHT22;2919;48.630;9.000;2022-08-14T04:27:32;12.80;99.20
5786;DHT22;2919;48.630;9.000;2022-08-14T04:30:00;12.80;99.20
5786;DHT22;2919;48.630;9.000;2022-08-14T04:32:26;13.00;99.10
5786;DHT22;2919;48.630;9.000;2022-08-14T04:34:53;13.10;98.90
5786;DHT22;2919;48.630;9.000;2022-08-14T04:37:21;13.10;98.80
5786;DHT22;2919;48.630;9.000;2022-08-14T04:40:05;13.10;98.80
5786;DHT22;2919;48.630;9.000;2022-08-14T04:42:50;13.10;99.00
5786;DHT22;2919;48.630;9.000;2022-08-14T04:45:34;13.10;98.90
5786;DHT22;2919;48.630;9.000;2022-08-14T04:48:13;13.20;99.20
5786;DHT22;2919;48.630;9.000;2022-08-14T04:50:40;13.30;99.40
5786;DHT22;2919;48.630;9.000;2022-08-14T04:53:07;13.30;99.40
5786;DHT22;2919;48.630;9.000;2022-08-14T04:55:32;13.40;99.30
5786;DHT22;2919;48.630;9.000;2022-08-14T04:57:59;13.50;99.00
5786;DHT22;2919;48.630;9.000;2022-08-14T05:00:24;13.60;98.70
5786;DHT22;2919;48.630;9.000;2022-08-14T05:02:51;13.60;98.70
5786;DHT22;2919;48.630;9.000;2022-08-14T05:05:17;13.70;98.40
5786;DHT22;2919;48.630;9.000;2022-08-14T05:07:45;13.80;98.40
5786;DHT22;2919;48.630;9.000;2022-08-14T05:10:10;13.90;98.10
5786;DHT22;2919;48.630;9.000;2022-08-14T05:12:37;13.90;98.30
5786;DHT22;2919;48.630;9.000;2022-08-14T05:15:05;14.00;98.20
5786;DHT22;2919;48.630;9.000;2022-08-14T05:17:32;14.00;97.70
5786;DHT22;2919;48.630;9.000;2022-08-14T05:19:58;14.00;97.70
5786;DHT22;2919;48.630;9.000;2022-08-14T05:22:26;14.10;97.80
5786;DHT22;2919;48.630;9.000;2022-08-14T05:24:51;14.20;98.10
5786;DHT22;2919;48.630;9.000;2022-08-14T05:27:18;14.20;98.40
5786;DHT22;2919;48.630;9.000;2022-08-14T05:29:45;14.20;98.40
5786;DHT22;2919;48.630;9.000;2022-08-14T05:32:12;14.30;98.80
5786;DHT22;2919;48.630;9.000;2022-08-14T05:34:38;14.40;99.00
5786;DHT22;2919;48.630;9.000;2022-08-14T05:37:03;14.40;99.00
5786;DHT22;2919;48.630;9.000;2022-08-14T05:39:30;14.60;99.20
5786;DHT22;2919;48.630;9.000;2022-08-14T05:41:55;14.60;99.10
5786;DHT22;2919;48.630;9.000;2022-08-14T05:44:21;14.70;99.00
5786;DHT22;2919;48.630;9.000;2022-08-14T05:46:47;14.80;98.80
5786;DHT22;2919;48.630;9.000;2022-08-14T05:49:13;14.80;98.60
5786;DHT22;2919;48.630;9.000;2022-08-14T05:51:39;14.90;98.20
5786;DHT22;2919;48.630;9.000;2022-08-14T05:54:06;15.00;97.50
5786;DHT22;2919;48.630;9.000;2022-08-14T05:56:32;15.10;97.10
5786;DHT22;2919;48.630;9.000;2022-08-14T05:58:58;15.20;96.70
5786;DHT22;2919;48.630;9.000;2022-08-14T06:01:24;15.30;96.70
5786;DHT22;2919;48.630;9.000;2022-08-14T06:03:49;15.50;96.80
5786;DHT22;2919;48.630;9.000;2022-08-14T06:06:17;15.60;96.40
5786;DHT22;2919;48.630;9.000;2022-08-14T06:08:42;15.70;96.40
5786;DHT22;2919;48.630;9.000;2022-08-14T06:11:09;15.80;95.60
5786;DHT22;2919;48.630;9.000;2022-08-14T06:13:37;15.90;95.30
5786;DHT22;2919;48.630;9.000;2022-08-14T06:16:03;15.90;95.10
5786;DHT22;2919;48.630;9.000;2022-08-14T06:18:28;16.00;95.30
5786;DHT22;2919;48.630;9.000;2022-08-14T06:20:54;16.10;95.70
5786;DHT22;2919;48.630;9.000;2022-08-14T06:23:20;16.20;95.20
5786;DHT22;2919;48.630;9.000;2022-08-14T06:25:46;16.40;94.20
5786;DHT22;2919;48.630;9.000;2022-08-14T06:28:16;16.50;94.20
5786;DHT22;2919;48.630;9.000;2022-08-14T06:30:42;16.60;94.50
5786;DHT22;2919;48.630;9.000;2022-08-14T06:33:08;16.70;93.80
5786;DHT22;2919;48.630;9.000;2022-08-14T06:35:33;16.80;93.50
5786;DHT22;2919;48.630;9.000;2022-08-14T06:38:00;17.00;93.10
5786;DHT22;2919;48.630;9.000;2022-08-14T06:40:32;17.20;92.60
5786;DHT22;2919;48.630;9.000;2022-08-14T06:43:00;17.30;92.40
5786;DHT22;2919;48.630;9.000;2022-08-14T06:45:26;17.50;92.20
5786;DHT22;2919;48.630;9.000;2022-08-14T06:47:52;17.70;91.90
5786;DHT22;2919;48.630;9.000;2022-08-14T06:50:20;18.00;91.70
5786;DHT22;2919;48.630;9.000;2022-08-14T06:52:46;18.30;90.70
5786;DHT22;2919;48.630;9.000;2022-08-14T06:55:15;18.50;90.30
5786;DHT22;2919;48.630;9.000;2022-08-14T06:57:46;18.70;90.00
5786;DHT22;2919;48.630;9.000;2022-08-14T07:00:31;19.00;88.90
5786;DHT22;2919;48.630;9.000;2022-08-14T07:02:57;19.20;86.70
5786;DHT22;2919;48.630;9.000;2022-08-14T07:05:41;19.60;86.60
5786;DHT22;2919;48.630;9.000;2022-08-14T07:08:18;20.10;86.40
5786;DHT22;2919;48.630;9.000;2022-08-14T07:10:46;20.40;84.80
5786;DHT22;2919;48.630;9.000;2022-08-14T07:13:13;20.80;84.60
5786;DHT22;2919;48.630;9.000;2022-08-14T07:15:40;21.20;83.20
5786;DHT22;2919;48.630;9.000;2022-08-14T07:18:07;21.50;81.10
5786;DHT22;2919;48.630;9.000;2022-08-14T07:20:34;21.80;79.80
5786;DHT22;2919;48.630;9.000;2022-08-14T07:23:04;22.30;78.70
5786;DHT22;2919;48.630;9.000;2022-08-14T07:25:31;22.70;77.10
5786;DHT22;2919;48.630;9.000;2022-08-14T07:27:57;22.90;74.60
5786;DHT22;2919;48.630;9.000;2022-08-14T07:30:23;23.00;73.30
5786;DHT22;2919;48.630;9.000;2022-08-14T07:32:49;23.30;74.70
5786;DHT22;2919;48.630;9.000;2022-08-14T07:35:15;23.90;71.40
5786;DHT22;2919;48.630;9.000;2022-08-14T07:37:41;24.60;71.20
5786;DHT22;2919;48.630;9.000;2022-08-14T07:40:07;25.60;67.60
5786;DHT22;2919;48.630;9.000;2022-08-14T07:42:33;25.90;64.40
5786;DHT22;2919;48.630;9.000;2022-08-14T07:44:59;26.20;64.00
5786;DHT22;2919;48.630;9.000;2022-08-14T07:47:25;27.60;61.30
5786;DHT22;2919;48.630;9.000;2022-08-14T07:50:03;29.00;57.30
5786;DHT22;2919;48.630;9.000;2022-08-14T07:52:29;29.30;56.40
5786;DHT22;2919;48.630;9.000;2022-08-14T07:54:55;28.60;57.30
5786;DHT22;2919;48.630;9.000;2022-08-14T07:57:22;30.00;54.50
5786;DHT22;2919;48.630;9.000;2022-08-14T07:59:47;30.20;53.90
5786;DHT22;2919;48.630;9.000;2022-08-14T08:02:15;30.20;54.10
5786;DHT22;2919;48.630;9.000;2022-08-14T08:04:44;30.10;54.60
5786;DHT22;2919;48.630;9.000;2022-08-14T08:07:11;30.50;52.80
5786;DHT22;2919;48.630;9.000;2022-08-14T08:09:42;30.30;53.80
5786;DHT22;2919;48.630;9.000;2022-08-14T08:12:08;30.70;53.10
5786;DHT22;2919;48.630;9.000;2022-08-14T08:14:36;31.30;52.50
5786;DHT22;2919;48.630;9.000;2022-08-14T08:17:03;32.20;50.70
5786;DHT22;2919;48.630;9.000;2022-08-14T08:19:28;32.80;49.10
5786;DHT22;2919;48.630;9.000;2022-08-14T08:21:57;32.40;49.00
5786;DHT22;2919;48.630;9.000;2022-08-14T08:24:23;31.70;49.80
5786;DHT22;2919;48.630;9.000;2022-08-14T08:26:48;31.60;50.20
5786;DHT22;2919;48.630;9.000;2022-08-14T08:29:19;31.70;48.80
5786;DHT22;2919;48.630;9.000;2022-08-14T08:31:49;31.50;49.90
5786;DHT22;2919;48.630;9.000;2022-08-14T08:34:16;31.20;49.10
5786;DHT22;2919;48.630;9.000;2022-08-14T08:36:42;30.50;51.00
5786;DHT22;2919;48.630;9.000;2022-08-14T08:39:09;30.70;50.20
5786;DHT22;2919;48.630;9.000;2022-08-14T08:44:05;31.30;48.80
5786;DHT22;2919;48.630;9.000;2022-08-14T08:46:31;31.70;48.00
5786;DHT22;2919;48.630;9.000;2022-08-14T08:48:56;31.00;48.70
5786;DHT22;2919;48.630;9.000;2022-08-14T08:51:30;30.80;49.60
5786;DHT22;2919;48.630;9.000;2022-08-14T08:54:13;31.90;47.70
5786;DHT22;2919;48.630;9.000;2022-08-14T08:56:47;31.20;48.80
5786;DHT22;2919;48.630;9.000;2022-08-14T08:59:28;30.90;50.80
5786;DHT22;2919;48.630;9.000;2022-08-14T09:01:56;30.90;49.80
5786;DHT22;2919;48.630;9.000;2022-08-14T09:04:24;30.60;49.20
5786;DHT22;2919;48.630;9.000;2022-08-14T09:06:51;30.60;49.70
5786;DHT22;2919;48.630;9.000;2022-08-14T09:09:29;30.50;49.40
5786;DHT22;2919;48.630;9.000;2022-08-14T09:11:57;29.80;49.70
5786;DHT22;2919;48.630;9.000;2022-08-14T09:14:27;30.10;50.30
5786;DHT22;2919;48.630;9.000;2022-08-14T09:16:55;29.90;49.80
5786;DHT22;2919;48.630;9.000;2022-08-14T09:19:21;30.40;48.80
5786;DHT22;2919;48.630;9.000;2022-08-14T09:21:47;30.50;48.50
5786;DHT22;2919;48.630;9.000;2022-08-14T09:24:13;30.50;49.70
5786;DHT22;2919;48.630;9.000;2022-08-14T09:26:41;30.70;49.60
5786;DHT22;2919;48.630;9.000;2022-08-14T09:29:08;30.50;48.00
5786;DHT22;2919;48.630;9.000;2022-08-14T09:31:35;30.50;47.70
5786;DHT22;2919;48.630;9.000;2022-08-14T09:45:37;30.10;48.90
5786;DHT22;2919;48.630;9.000;2022-08-14T09:48:20;29.70;49.60
5786;DHT22;2919;48.630;9.000;2022-08-14T09:53:16;30.30;48.00
5786;DHT22;2919;48.630;9.000;2022-08-14T09:55:42;29.90;48.50
5786;DHT22;2919;48.630;9.000;2022-08-14T09:58:19;29.70;48.60
5786;DHT22;2919;48.630;9.000;2022-08-14T10:00:54;29.70;49.10
5786;DHT22;2919;48.630;9.000;2022-08-14T10:03:32;30.30;48.40
5786;DHT22;2919;48.630;9.000;2022-08-14T10:06:10;29.90;48.60
5786;DHT22;2919;48.630;9.000;2022-08-14T10:08:50;30.00;48.60
5786;DHT22;2919;48.630;9.000;2022-08-14T10:11:30;29.60;49.00
5786;DHT22;2919;48.630;9.000;2022-08-14T10:14:20;29.50;48.90
5786;DHT22;2919;48.630;9.000;2022-08-14T10:16:53;29.40;49.00
5786;DHT22;2919;48.630;9.000;2022-08-14T10:19:21;29.40;48.00
5786;DHT22;2919;48.630;9.000;2022-08-14T10:22:01;29.10;48.20
5786;DHT22;2919;48.630;9.000;2022-08-14T10:24:36;29.00;48.80
5786;DHT22;2919;48.630;9.000;2022-08-14T10:27:16;29.30;48.50
5786;DHT22;2919;48.630;9.000;2022-08-14T10:29:46;29.50;47.50
5786;DHT22;2919;48.630;9.000;2022-08-14T10:32:12;29.30;47.00
5786;DHT22;2919;48.630;9.000;2022-08-14T10:34:39;29.30;46.40
5786;DHT22;2919;48.630;9.000;2022-08-14T10:37:12;29.30;46.40
5786;DHT22;2919;48.630;9.000;2022-08-14T10:39:39;29.10;46.10
5786;DHT22;2919;48.630;9.000;2022-08-14T10:42:11;29.10;46.90
5786;DHT22;2919;48.630;9.000;2022-08-14T10:44:37;28.90;47.10
5786;DHT22;2919;48.630;9.000;2022-08-14T10:47:05;29.10;46.00
5786;DHT22;2919;48.630;9.000;2022-08-14T10:49:35;29.00;45.80
5786;DHT22;2919;48.630;9.000;2022-08-14T10:52:09;29.20;44.30
5786;DHT22;2919;48.630;9.000;2022-08-14T10:57:20;29.30;44.70
5786;DHT22;2919;48.630;9.000;2022-08-14T10:59:50;29.30;45.10
5786;DHT22;2919;48.630;9.000;2022-08-14T11:02:29;29.20;45.20
5786;DHT22;2919;48.630;9.000;2022-08-14T11:05:15;29.50;45.70
5786;DHT22;2919;48.630;9.000;2022-08-14T11:10:22;29.60;43.60
5786;DHT22;2919;48.630;9.000;2022-08-14T11:12:54;29.90;43.70
5786;DHT22;2919;48.630;9.000;2022-08-14T11:15:22;30.00;44.20
5786;DHT22;2919;48.630;9.000;2022-08-14T11:17:50;30.00;44.60
5786;DHT22;2919;48.630;9.000;2022-08-14T11:20:18;30.00;45.60
5786;DHT22;2919;48.630;9.000;2022-08-14T11:22:45;29.90;45.50
5786;DHT22;2919;48.630;9.000;2022-08-14T11:25:13;30.10;44.60
5786;DHT22;2919;48.630;9.000;2022-08-14T11:27:44;29.90;45.70
5786;DHT22;2919;48.630;9.000;2022-08-14T11:30:13;30.00;45.40
5786;DHT22;2919;48.630;9.000;2022-08-14T11:32:40;29.90;45.10
5786;DHT22;2919;48.630;9.000;2022-08-14T11:35:21;30.10;45.30
5786;DHT22;2919;48.630;9.000;2022-08-14T11:37:52;30.00;41.30
5786;DHT22;2919;48.630;9.000;2022-08-14T11:40:19;30.20;42.60
5786;DHT22;2919;48.630;9.000;2022-08-14T11:42:46;30.30;41.70
5786;DHT22;2919;48.630;9.000;2022-08-14T11:45:13;30.50;41.30
5786;DHT22;2919;48.630;9.000;2022-08-14T11:47:39;30.10;44.00
5786;DHT22;2919;48.630;9.000;2022-08-14T11:50:20;30.30;43.70
5786;DHT22;2919;48.630;9.000;2022-08-14T11:52:48;30.10;40.70
5786;DHT22;2919;48.630;9.000;2022-08-14T11:55:14;30.20;41.00
5786;DHT22;2919;48.630;9.000;2022-08-14T11:57:41;30.30;40.80
5786;DHT22;2919;48.630;9.000;2022-08-14T12:00:10;30.60;39.00
5786;DHT22;2919;48.630;9.000;2022-08-14T12:02:36;30.40;40.40
5786;DHT22;2919;48.630;9.000;2022-08-14T12:05:13;30.40;40.20
5786;DHT22;2919;48.630;9.000;2022-08-14T12:07:48;30.40;40.10
5786;DHT22;2919;48.630;9.000;2022-08-14T12:10:17;30.40;40.60
5786;DHT22;2919;48.630;9.000;2022-08-14T12:12:45;30.40;39.80
5786;DHT22;2919;48.630;9.000;2022-08-14T12:15:10;30.60;39.50
5786;DHT22;2919;48.630;9.000;2022-08-14T12:17:47;30.40;40.30
5786;DHT22;2919;48.630;9.000;2022-08-14T12:20:13;30.40;40.40
5786;DHT22;2919;48.630;9.000;2022-08-14T12:22:42;30.50;40.20
5786;DHT22;2919;48.630;9.000;2022-08-14T12:25:12;30.70;40.40
5786;DHT22;2919;48.630;9.000;2022-08-14T12:27:42;30.80;39.30
5786;DHT22;2919;48.630;9.000;2022-08-14T12:30:11;30.80;40.00
5786;DHT22;2919;48.630;9.000;2022-08-14T12:32:46;31.10;39.10
5786;DHT22;2919;48.630;9.000;2022-08-14T12:35:12;31.30;39.10
5786;DHT22;2919;48.630;9.000;2022-08-14T12:37:46;31.10;39.70
5786;DHT22;2919;48.630;9.000;2022-08-14T12:40:14;31.10;39.80
5786;DHT22;2919;48.630;9.000;2022-08-14T12:42:40;31.30;40.00
5786;DHT22;2919;48.630;9.000;2022-08-14T12:45:10;31.50;40.80
5786;DHT22;2919;48.630;9.000;2022-08-14T12:47:39;31.40;39.20
5786;DHT22;2919;48.630;9.000;2022-08-14T12:50:05;31.40;39.10
5786;DHT22;2919;48.630;9.000;2022-08-14T12:52:33;31.70;38.20
5786;DHT22;2919;48.630;9.000;2022-08-14T12:55:02;31.50;37.80
5786;DHT22;2919;48.630;9.000;2022-08-14T12:57:43;31.40;36.80
5786;DHT22;2919;48.630;9.000;2022-08-14T13:00:20;31.40;37.50
5786;DHT22;2919;48.630;9.000;2022-08-14T13:02:53;31.30;38.70
5786;DHT22;2919;48.630;9.000;2022-08-14T13:05:37;31.00;38.80
5786;DHT22;2919;48.630;9.000;2022-08-14T13:08:04;31.30;38.80
5786;DHT22;2919;48.630;9.000;2022-08-14T13:10:32;31.50;38.00
5786;DHT22;2919;48.630;9.000;2022-08-14T13:12:58;31.10;38.10
5786;DHT22;2919;48.630;9.000;2022-08-14T13:15:25;30.90;39.50
5786;DHT22;2919;48.630;9.000;2022-08-14T13:17:52;31.20;39.40
5786;DHT22;2919;48.630;9.000;2022-08-14T13:20:24;31.30;38.50
5786;DHT22;2919;48.630;9.000;2022-08-14T13:22:51;31.60;38.50
5786;DHT22;2919;48.630;9.000;2022-08-14T13:25:22;31.90;38.20
5786;DHT22;2919;48.630;9.000;2022-08-14T13:27:52;31.90;38.40
5786;DHT22;2919;48.630;9.000;2022-08-14T13:30:20;31.80;38.00
5786;DHT22;2919;48.630;9.000;2022-08-14T13:32:47;31.90;39.00
5786;DHT22;2919;48.630;9.000;2022-08-14T13:35:15;31.90;39.30
5786;DHT22;2919;48.630;9.000;2022-08-14T13:37:42;32.10;38.20
5786;DHT22;2919;48.630;9.000;2022-08-14T13:40:17;32.30;37.40
5786;DHT22;2919;48.630;9.000;2022-08-14T13:42:46;32.20;37.80
5786;DHT22;2919;48.630;9.000;2022-08-14T13:45:13;31.90;38.80
5786;DHT22;2919;48.630;9.000;2022-08-14T13:47:39;31.80;38.30
5786;DHT22;2919;48.630;9.000;2022-08-14T13:50:07;32.10;37.20
5786;DHT22;2919;48.630;9.000;2022-08-14T13:52:53;31.90;37.50
5786;DHT22;2919;48.630;9.000;2022-08-14T13:55:28;31.90;38.70
5786;DHT22;2919;48.630;9.000;2022-08-14T13:57:59;32.00;37.90
5786;DHT22;2919;48.630;9.000;2022-08-14T14:00:25;32.10;37.60
5786;DHT22;2919;48.630;9.000;2022-08-14T14:02:51;32.40;36.30
5786;DHT22;2919;48.630;9.000;2022-08-14T14:05:19;32.40;35.80
5786;DHT22;2919;48.630;9.000;2022-08-14T14:07:47;32.10;37.00
5786;DHT22;2919;48.630;9.000;2022-08-14T14:10:15;32.00;37.10
5786;DHT22;2919;48.630;9.000;2022-08-14T14:12:42;31.90;37.70
5786;DHT22;2919;48.630;9.000;2022-08-14T14:15:16;31.70;38.10
5786;DHT22;2919;48.630;9.000;2022-08-14T14:17:43;31.80;36.90
5786;DHT22;2919;48.630;9.000;2022-08-14T14:20:11;31.50;36.80
5786;DHT22;2919;48.630;9.000;2022-08-14T14:22:45;31.40;36.70
5786;DHT22;2919;48.630;9.000;2022-08-14T14:25:13;31.60;36.20
5786;DHT22;2919;48.630;9.000;2022-08-14T14:27:42;31.50;36.50
5786;DHT22;2919;48.630;9.000;2022-08-14T14:30:10;31.40;36.20
5786;DHT22;2919;48.630;9.000;2022-08-14T14:32:39;31.40;36.80
5786;DHT22;2919;48.630;9.000;2022-08-14T14:35:11;31.20;35.50
5786;DHT22;2919;48.630;9.000;2022-08-14T14:37:39;30.90;36.20
5786;DHT22;2919;48.630;9.000;2022-08-14T14:40:06;30.90;36.40
5786;DHT22;2919;48.630;9.000;2022-08-14T14:42:32;30.80;39.30
5786;DHT22;2919;48.630;9.000;2022-08-14T14:45:20;30.80;38.00
5786;DHT22;2919;48.630;9.000;2022-08-14T14:47:51;30.90;36.60
5786;DHT22;2919;48.630;9.000;2022-08-14T14:50:19;30.90;37.50
5786;DHT22;2919;48.630;9.000;2022-08-14T14:52:46;31.00;36.20
5786;DHT22;2919;48.630;9.000;2022-08-14T14:55:14;30.90;35.80
5786;DHT22;2919;48.630;9.000;2022-08-14T14:57:41;30.80;37.30
5786;DHT22;2919;48.630;9.000;2022-08-14T15:00:09;30.50;36.70
5786;DHT22;2919;48.630;9.000;2022-08-14T15:02:39;30.30;36.60
5786;DHT22;2919;48.630;9.000;2022-08-14T15:05:06;30.20;37.90
5786;DHT22;2919;48.630;9.000;2022-08-14T15:07:33;30.30;36.60
5786;DHT22;2919;48.630;9.000;2022-08-14T15:09:59;30.30;37.00
5786;DHT22;2919;48.630;9.000;2022-08-14T15:12:25;30.30;38.20
5786;DHT22;2919;48.630;9.000;2022-08-14T15:14:51;30.40;39.00
5786;DHT22;2919;48.630;9.000;2022-08-14T15:17:17;30.50;37.80
5786;DHT22;2919;48.630;9.000;2022-08-14T15:19:43;30.60;36.80
5786;DHT22;2919;48.630;9.000;2022-08-14T15:22:09;30.60;37.00
5786;DHT22;2919;48.630;9.000;2022-08-14T15:24:36;30.60;36.80
5786;DHT22;2919;48.630;9.000;2022-08-14T15:27:02;30.70;37.90
5786;DHT22;2919;48.630;9.000;2022-08-14T15:29:31;30.70;38.80
5786;DHT22;2919;48.630;9.000;2022-08-14T15:31:56;30.50;38.30
5786;DHT22;2919;48.630;9.000;2022-08-14T15:34:22;30.20;37.70
5786;DHT22;2919;48.630;9.000;2022-08-14T15:36:48;30.20;40.40
5786;DHT22;2919;48.630;9.000;2022-08-14T15:39:15;30.10;39.50
5786;DHT22;2919;48.630;9.000;2022-08-14T15:41:41;30.00;40.20
5786;DHT22;2919;48.630;9.000;2022-08-14T15:44:07;30.00;38.70
5786;DHT22;2919;48.630;9.000;2022-08-14T15:46:33;29.90;38.70
5786;DHT22;2919;48.630;9.000;2022-08-14T15:48:59;30.00;41.80
5786;DHT22;2919;48.630;9.000;2022-08-14T15:51:25;30.00;38.70
5786;DHT22;2919;48.630;9.000;2022-08-14T15:53:55;30.10;38.30
5786;DHT22;2919;48.630;9.000;2022-08-14T15:56:22;30.00;38.00
5786;DHT22;2919;48.630;9.000;2022-08-14T15:58:48;30.10;37.40
5786;DHT22;2919;48.630;9.000;2022-08-14T16:01:14;30.10;37.20
5786;DHT22;2919;48.630;9.000;2022-08-14T16:03:50;30.00;37.90
5786;DHT22;2919;48.630;9.000;2022-08-14T16:06:24;29.90;38.80
5786;DHT22;2919;48.630;9.000;2022-08-14T16:08:58;29.90;39.10
5786;DHT22;2919;48.630;9.000;2022-08-14T16:11:24;29.80;41.30
5786;DHT22;2919;48.630;9.000;2022-08-14T16:13:50;29.60;41.50
5786;DHT22;2919;48.630;9.000;2022-08-14T16:16:25;29.50;43.90
5786;DHT22;2919;48.630;9.000;2022-08-14T16:18:51;29.40;40.70
5786;DHT22;2919;48.630;9.000;2022-08-14T16:21:20;29.20;43.30
5786;DHT22;2919;48.630;9.000;2022-08-14T16:23:47;29.20;43.60
5786;DHT22;2919;48.630;9.000;2022-08-14T16:26:18;29.00;42.10
5786;DHT22;2919;48.630;9.000;2022-08-14T16:28:52;29.00;41.90
5786;DHT22;2919;48.630;9.000;2022-08-14T16:31:19;29.00;41.50
5786;DHT22;2919;48.630;9.000;2022-08-14T16:33:46;29.00;40.40
5786;DHT22;2919;48.630;9.000;2022-08-14T16:36:16;29.00;39.60
5786;DHT22;2919;48.630;9.000;2022-08-14T16:38:50;29.00;41.00